createdAt,value
2022-09-12T00:01:31.427Z,7.13
2022-09-12T00:04:02.012Z,6.75
2022-09-12T00:06:33.178Z,7.70
2022-09-12T00:09:11.892Z,7.40
2022-09-12T00:11:43.118Z,7.05
2022-09-12T00:14:14.993Z,8.88
2022-09-12T00:16:44.201Z,10.57
2022-09-12T00:19:12.965Z,7.95
2022-09-12T00:21:42.028Z,7.93
2022-09-12T00:24:13.326Z,7.82
2022-09-12T00:26:41.807Z,8.25
2022-09-12T00:29:19.125Z,8.63
2022-09-12T00:31:48.016Z,8.48
2022-09-12T00:34:16.548Z,7.25
2022-09-12T00:36:45.008Z,7.90
2022-09-12T00:39:17.516Z,9.15
2022-09-12T00:41:46.231Z,8.77
2022-09-12T00:44:23.812Z,8.55
2022-09-12T00:46:58.922Z,9.00
2022-09-12T00:49:27.257Z,9.32
2022-09-12T00:52:01.699Z,8.85
2022-09-12T00:54:45.401Z,9.23
2022-09-12T00:57:16.948Z,9.88
2022-09-12T00:59:51.237Z,10.00
2022-09-12T01:02:20.194Z,9.23
2022-09-12T01:04:53.123Z,11.00
2022-09-12T01:07:26.546Z,10.57
2022-09-12T01:09:55.354Z,8.82
2022-09-12T01:12:24.416Z,9.13
2022-09-12T01:14:53.006Z,10.45
2022-09-12T01:17:22.142Z,11.38
2022-09-12T01:20:29.278Z,13.38
2022-09-12T01:23:00.546Z,11.52
2022-09-12T01:26:03.300Z,11.27
2022-09-12T01:29:03.153Z,10.63
2022-09-12T01:31:57.867Z,11.98
2022-09-12T01:34:58.502Z,11.52
2022-09-12T01:37:38.434Z,11.48
2022-09-12T01:40:21.147Z,10.88
2022-09-12T01:43:18.326Z,15.20
2022-09-12T01:45:56.502Z,14.27
2022-09-12T01:48:45.745Z,11.93
2022-09-12T01:51:26.444Z,12.73
2022-09-12T01:54:07.032Z,12.45
2022-09-12T01:56:41.325Z,13.27
2022-09-12T01:59:23.091Z,12.75
2022-09-12T02:02:09.901Z,13.20
2022-09-12T02:05:09.117Z,13.70
2022-09-12T02:07:43.999Z,14.45
2022-09-12T02:10:28.128Z,14.18
2022-09-12T02:13:12.819Z,13.55
2022-09-12T02:15:45.833Z,14.32
2022-09-12T02:18:18.482Z,16.75
2022-09-12T02:20:49.400Z,14.68
2022-09-12T02:23:25.329Z,15.35
2022-09-12T02:26:00.479Z,15.95
2022-09-12T02:28:36.961Z,16.15
2022-09-12T02:31:23.166Z,16.95
2022-09-12T02:34:03.573Z,15.55
2022-09-12T02:36:37.731Z,15.98
2022-09-12T02:39:06.558Z,19.27
2022-09-12T02:41:35.624Z,17.42
2022-09-12T02:44:05.799Z,21.85
2022-09-12T02:46:44.127Z,16.95
2022-09-12T02:49:13.340Z,20.70
2022-09-12T02:51:42.128Z,19.90
2022-09-12T02:54:11.799Z,19.42
2022-09-12T02:56:43.100Z,18.58
2022-09-12T02:59:16.195Z,18.40
2022-09-12T03:02:00.369Z,19.73
2022-09-12T03:04:53.704Z,18.05
2022-09-12T03:07:29.276Z,17.90
2022-09-12T03:10:35.138Z,18.42
2022-09-12T03:13:18.750Z,19.23
2022-09-12T03:16:18.060Z,18.83
2022-09-12T03:19:19.543Z,19.25
2022-09-12T03:22:12.903Z,19.55
2022-09-12T03:25:05.823Z,18.33
2022-09-12T03:27:42.938Z,19.50
2022-09-12T03:30:12.639Z,19.83
2022-09-12T03:32:46.960Z,18.95
2022-09-12T03:35:22.821Z,20.83
2022-09-12T03:37:53.102Z,19.60
2022-09-12T03:40:21.596Z,19.70
2022-09-12T03:42:49.908Z,22.55
2022-09-12T03:45:18.555Z,20.45
2022-09-12T03:47:47.774Z,27.25
2022-09-12T03:50:16.411Z,26.17
2022-09-12T03:52:44.809Z,25.00
2022-09-12T03:55:13.259Z,21.98
2022-09-12T03:57:41.755Z,21.50
2022-09-12T04:00:11.377Z,21.55
2022-09-12T04:02:43.974Z,22.40
2022-09-12T04:05:18.542Z,27.90
2022-09-12T04:07:50.191Z,21.05
2022-09-12T04:10:20.514Z,27.23
2022-09-12T04:12:49.023Z,33.58
2022-09-12T04:15:17.459Z,24.95
2022-09-12T04:17:45.768Z,24.35
2022-09-12T04:20:14.095Z,28.77
2022-09-12T04:22:42.510Z,26.70
2022-09-12T04:25:11.796Z,31.92
2022-09-12T04:27:41.748Z,27.08
2022-09-12T04:30:10.985Z,33.13
2022-09-12T04:32:40.945Z,31.02
2022-09-12T04:35:11.287Z,30.40
2022-09-12T04:37:41.374Z,26.63
2022-09-12T04:40:09.942Z,29.10
2022-09-12T04:42:38.320Z,29.98
2022-09-12T04:45:08.219Z,30.67
2022-09-12T04:47:36.774Z,35.78
2022-09-12T04:50:05.520Z,30.67
2022-09-12T04:52:34.249Z,42.15
2022-09-12T04:55:02.634Z,32.47
2022-09-12T04:57:31.057Z,35.42
2022-09-12T05:00:03.876Z,35.70
2022-09-12T05:02:36.708Z,43.20
2022-09-12T05:05:06.463Z,32.10
2022-09-12T05:07:35.638Z,32.33
2022-09-12T05:10:04.756Z,30.75
2022-09-12T05:12:33.174Z,34.40
2022-09-12T05:15:02.512Z,31.40
2022-09-12T05:17:30.916Z,33.72
2022-09-12T05:20:00.512Z,37.97
2022-09-12T05:22:28.881Z,36.72
2022-09-12T05:24:57.221Z,31.02
2022-09-12T05:27:25.594Z,37.40
2022-09-12T05:29:54.157Z,31.70
2022-09-12T05:32:22.592Z,33.55
2022-09-12T05:34:50.940Z,34.35
2022-09-12T05:37:19.522Z,34.13
2022-09-12T05:39:48.472Z,32.58
2022-09-12T05:42:19.604Z,34.38
2022-09-12T05:44:48.042Z,35.83
2022-09-12T05:47:19.702Z,33.55
2022-09-12T05:49:48.187Z,33.13
2022-09-12T05:52:17.177Z,31.27
2022-09-12T05:54:47.588Z,35.35
2022-09-12T05:57:16.001Z,36.00
2022-09-12T05:59:44.941Z,38.22
2022-09-12T06:02:13.331Z,38.42
2022-09-12T06:04:41.711Z,32.90
2022-09-12T06:07:10.020Z,37.53
2022-09-12T06:09:38.505Z,34.58
2022-09-12T06:12:08.737Z,36.03
2022-09-12T06:14:37.158Z,36.20
2022-09-12T06:17:05.763Z,37.25
2022-09-12T06:19:34.806Z,32.28
2022-09-12T06:22:03.640Z,33.72
2022-09-12T06:24:32.107Z,32.00
2022-09-12T06:27:02.319Z,33.08
2022-09-12T06:29:32.735Z,37.17
2022-09-12T06:32:01.853Z,33.03
2022-09-12T06:34:31.031Z,34.33
2022-09-12T06:36:59.359Z,33.17
2022-09-12T06:39:28.652Z,31.48
2022-09-12T06:41:56.987Z,30.67
2022-09-12T06:44:35.934Z,34.03
2022-09-12T06:47:04.421Z,29.23
2022-09-12T06:49:34.179Z,35.00
2022-09-12T06:52:02.808Z,32.15
2022-09-12T06:54:31.193Z,28.50
2022-09-12T06:56:59.447Z,30.92
2022-09-12T06:59:28.102Z,35.55
2022-09-12T07:01:56.609Z,33.60
2022-09-12T07:04:26.512Z,31.98
2022-09-12T07:06:54.744Z,41.73
2022-09-12T07:09:24.178Z,33.08
2022-09-12T07:11:52.503Z,37.92
2022-09-12T07:14:21.616Z,43.78
2022-09-12T07:16:52.235Z,36.22
2022-09-12T07:19:21.496Z,39.95
2022-09-12T07:21:50.032Z,38.08
2022-09-12T07:24:19.694Z,35.22
2022-09-12T07:26:48.653Z,37.90
2022-09-12T07:32:09.108Z,37.05
2022-09-12T07:34:40.330Z,35.58
2022-09-12T07:37:08.824Z,44.38
2022-09-12T07:39:40.211Z,36.67
2022-09-12T07:42:08.513Z,42.72
2022-09-12T07:44:37.138Z,40.30
2022-09-12T07:47:05.718Z,42.17
2022-09-12T07:49:34.473Z,42.78
2022-09-12T07:52:03.070Z,40.17
2022-09-12T07:54:33.737Z,41.72
2022-09-12T07:59:51.275Z,39.40
2022-09-12T08:02:20.418Z,39.53
2022-09-12T08:04:49.409Z,37.65
2022-09-12T08:07:19.703Z,37.13
2022-09-12T08:09:48.432Z,39.65
2022-09-12T08:12:17.932Z,38.88
2022-09-12T08:14:46.635Z,40.70
2022-09-12T08:17:14.955Z,41.15
2022-09-12T08:19:43.693Z,41.35
2022-09-12T08:22:12.074Z,39.30
2022-09-12T08:24:43.273Z,40.05
2022-09-12T08:27:11.645Z,40.75
2022-09-12T08:29:39.911Z,36.88
2022-09-12T08:32:08.561Z,38.58
2022-09-12T08:34:36.988Z,40.80
2022-09-12T08:37:05.569Z,42.40
2022-09-12T08:39:33.978Z,39.97
2022-09-12T08:42:08.245Z,37.95
2022-09-12T08:44:54.506Z,36.22
2022-09-12T08:47:33.584Z,36.22
2022-09-12T08:50:08.283Z,36.47
2022-09-12T08:53:03.536Z,41.55
2022-09-12T08:55:38.462Z,32.58
2022-09-12T08:58:22.800Z,32.25
2022-09-12T09:01:03.908Z,33.58
2022-09-12T09:03:48.386Z,27.35
2022-09-12T09:06:24.630Z,29.77
2022-09-12T09:09:02.320Z,32.63
2022-09-12T09:11:48.099Z,29.35
2022-09-12T09:14:44.946Z,27.45
2022-09-12T09:17:19.494Z,26.83
2022-09-12T09:19:56.549Z,23.35
2022-09-12T09:22:43.612Z,22.73
2022-09-12T09:25:25.333Z,25.00
2022-09-12T09:28:11.830Z,24.27
2022-09-12T09:30:43.971Z,20.25
2022-09-12T09:33:22.953Z,24.15
2022-09-12T09:36:06.874Z,19.77
2022-09-12T09:39:12.803Z,20.20
2022-09-12T09:41:47.348Z,18.63
2022-09-12T09:44:16.400Z,19.48
2022-09-12T09:46:45.132Z,21.73
2022-09-12T09:49:16.819Z,21.98
2022-09-12T09:51:48.670Z,21.83
2022-09-12T09:54:29.131Z,18.50
2022-09-12T09:56:57.664Z,16.48
2022-09-12T09:59:32.139Z,20.15
2022-09-12T10:02:13.274Z,16.13
2022-09-12T10:04:54.062Z,17.98
2022-09-12T10:07:24.252Z,19.65
2022-09-12T10:10:15.537Z,17.55
2022-09-12T10:12:44.600Z,21.27
2022-09-12T10:15:23.374Z,20.75
2022-09-12T10:17:53.090Z,17.88
2022-09-12T10:20:37.397Z,24.05
2022-09-12T10:23:37.538Z,22.13
2022-09-12T10:26:11.447Z,20.47
2022-09-12T10:28:47.168Z,23.02
2022-09-12T10:31:29.210Z,21.33
2022-09-12T10:34:01.227Z,25.90
2022-09-12T10:36:40.578Z,22.88
2022-09-12T10:39:19.338Z,27.02
2022-09-12T10:41:47.934Z,24.13
2022-09-12T10:44:18.932Z,26.98
2022-09-12T10:46:47.300Z,23.70
2022-09-12T10:49:40.046Z,25.05
2022-09-12T10:52:24.205Z,28.25
2022-09-12T10:54:52.809Z,28.58
2022-09-12T10:57:30.136Z,26.05
2022-09-12T11:00:28.526Z,26.73
2022-09-12T11:03:15.412Z,27.98
2022-09-12T11:05:58.598Z,22.05
2022-09-12T11:08:43.811Z,25.92
2022-09-12T11:11:46.857Z,24.67
2022-09-12T11:14:47.669Z,19.48
2022-09-12T11:17:23.138Z,19.92
2022-09-12T11:20:13.824Z,22.73
2022-09-12T11:23:00.786Z,22.50
2022-09-12T11:25:35.213Z,26.30
2022-09-12T11:28:28.510Z,17.83
2022-09-12T11:30:56.983Z,18.83
2022-09-12T11:33:44.478Z,19.55
2022-09-12T11:36:40.106Z,19.88
2022-09-12T11:39:23.780Z,19.55
2022-09-12T11:41:58.748Z,22.50
2022-09-12T11:44:40.276Z,20.08
2022-09-12T11:47:13.517Z,20.73
2022-09-12T11:49:50.886Z,17.52
2022-09-12T11:52:33.729Z,17.15
2022-09-12T11:55:19.540Z,19.55
2022-09-12T11:58:01.664Z,15.77
2022-09-12T12:00:33.335Z,13.48
2022-09-12T12:03:13.950Z,14.52
2022-09-12T12:08:22.338Z,15.88
2022-09-12T12:10:56.589Z,14.90
2022-09-12T12:13:52.113Z,16.02
2022-09-12T12:16:26.081Z,13.10
2022-09-12T12:19:00.433Z,16.48
2022-09-12T12:21:29.325Z,13.45
2022-09-12T12:24:13.057Z,15.93
2022-09-12T12:26:41.380Z,14.68
2022-09-12T12:29:35.159Z,17.17
2022-09-12T12:32:07.781Z,12.60
2022-09-12T12:34:37.931Z,14.57
2022-09-12T12:37:21.925Z,12.90
2022-09-12T12:39:51.379Z,13.32
2022-09-12T12:42:35.258Z,14.27
2022-09-12T12:45:26.986Z,12.80
2022-09-12T12:48:08.367Z,10.30
2022-09-12T12:50:37.209Z,14.00
2022-09-12T12:53:28.049Z,13.15
2022-09-12T12:55:57.573Z,14.13
2022-09-12T12:58:29.575Z,16.17
2022-09-12T13:01:20.343Z,18.08
2022-09-12T13:04:05.407Z,15.93
2022-09-12T13:06:43.304Z,14.50
2022-09-12T13:09:37.885Z,13.38
2022-09-12T13:12:19.342Z,12.02
2022-09-12T13:14:47.725Z,10.63
2022-09-12T13:17:25.745Z,10.38
2022-09-12T13:20:26.126Z,7.50
2022-09-12T13:22:53.158Z,9.52
2022-09-12T13:25:36.149Z,11.43
2022-09-12T13:28:23.439Z,9.15
2022-09-12T13:30:56.946Z,9.35
2022-09-12T13:33:35.285Z,12.60
2022-09-12T13:36:09.985Z,11.98
2022-09-12T13:39:01.040Z,9.95
2022-09-12T13:41:39.620Z,11.05
2022-09-12T13:44:11.403Z,12.07
2022-09-12T13:46:40.187Z,9.73
2022-09-12T13:49:22.847Z,12.20
2022-09-12T13:52:19.026Z,14.85
2022-09-12T13:54:51.899Z,10.52
2022-09-12T13:57:33.881Z,9.52
2022-09-12T14:00:08.698Z,9.52
2022-09-12T14:02:39.865Z,8.40
2022-09-12T14:05:19.855Z,9.65
2022-09-12T14:07:55.393Z,9.23
2022-09-12T14:10:33.172Z,9.05
2022-09-12T14:13:10.718Z,9.23
2022-09-12T14:15:44.268Z,10.57
2022-09-12T14:18:23.957Z,8.55
2022-09-12T14:20:56.098Z,9.25
2022-09-12T14:23:31.225Z,7.82
2022-09-12T14:26:09.419Z,8.25
2022-09-12T14:28:43.215Z,6.20
2022-09-12T14:31:15.876Z,9.15
2022-09-12T14:34:10.081Z,9.95
2022-09-12T14:36:46.632Z,8.55
2022-09-12T14:39:24.145Z,6.95
2022-09-12T14:42:03.502Z,6.25
2022-09-12T14:44:35.273Z,8.77
2022-09-12T14:47:19.742Z,7.18
2022-09-12T14:49:54.552Z,8.73
2022-09-12T14:52:28.715Z,8.10
2022-09-12T14:55:28.429Z,8.68
2022-09-12T14:58:20.523Z,10.20
2022-09-12T15:01:12.243Z,5.88
2022-09-12T15:03:49.245Z,8.07
2022-09-12T15:06:20.491Z,9.05
2022-09-12T15:08:49.119Z,8.65
2022-09-12T15:11:21.212Z,7.90
2022-09-12T15:13:49.712Z,9.10
2022-09-12T15:16:18.446Z,8.00
2022-09-12T15:18:46.958Z,10.43
2022-09-12T15:21:20.257Z,8.18
2022-09-12T15:23:50.716Z,10.27
2022-09-12T15:28:49.666Z,9.68
2022-09-12T15:31:30.072Z,6.82
2022-09-12T15:36:32.004Z,7.30
2022-09-12T15:39:00.531Z,9.38
2022-09-12T15:41:37.067Z,4.88
2022-09-12T15:44:08.085Z,7.68
2022-09-12T15:46:36.489Z,5.03
2022-09-12T15:49:07.537Z,8.18
2022-09-12T15:51:36.236Z,4.32
2022-09-12T15:54:05.874Z,5.78
2022-09-12T15:56:35.897Z,4.90
2022-09-12T15:59:06.365Z,6.57
2022-09-12T16:01:35.670Z,5.53
2022-09-12T16:04:24.238Z,5.53
2022-09-12T16:06:54.123Z,4.72
2022-09-12T16:09:24.022Z,4.82
2022-09-12T16:11:52.510Z,6.32
2022-09-12T16:14:20.934Z,4.80
2022-09-12T16:16:54.130Z,4.63
2022-09-12T16:19:23.045Z,5.00
2022-09-12T16:21:51.407Z,6.45
2022-09-12T16:24:23.223Z,5.97
2022-09-12T16:26:51.552Z,5.03
2022-09-12T16:29:20.104Z,5.22
2022-09-12T16:31:48.835Z,4.68
2022-09-12T16:34:19.810Z,4.78
2022-09-12T16:36:48.231Z,6.65
2022-09-12T16:39:16.747Z,4.78
2022-09-12T16:41:45.463Z,4.80
2022-09-12T16:44:13.931Z,7.40
2022-09-12T16:46:42.225Z,5.13
2022-09-12T16:49:11.985Z,6.68
2022-09-12T16:51:43.876Z,4.88
2022-09-12T16:54:12.357Z,6.18
2022-09-12T16:56:42.077Z,5.50
2022-09-12T16:59:14.114Z,4.97
2022-09-12T17:01:43.164Z,5.50
2022-09-12T17:04:11.991Z,5.18
2022-09-12T17:06:41.877Z,4.88
2022-09-12T17:09:11.552Z,10.60
2022-09-12T17:11:47.918Z,4.30
2022-09-12T17:14:16.302Z,4.55
2022-09-12T17:16:50.979Z,6.05
2022-09-12T17:19:29.128Z,3.90
2022-09-12T17:21:58.208Z,4.30
2022-09-12T17:24:26.868Z,3.50
2022-09-12T17:26:57.275Z,5.05
2022-09-12T17:31:55.124Z,3.97
2022-09-12T17:34:23.598Z,3.47
2022-09-12T17:36:52.216Z,5.95
2022-09-12T17:39:20.580Z,3.47
2022-09-12T17:41:52.086Z,7.32
2022-09-12T17:44:20.580Z,5.50
2022-09-12T17:46:48.968Z,3.42
2022-09-12T17:49:18.666Z,4.82
2022-09-12T17:51:46.963Z,3.80
2022-09-12T17:54:19.790Z,3.92
2022-09-12T17:56:52.607Z,3.78
2022-09-12T17:59:24.027Z,3.80
2022-09-12T18:02:11.057Z,4.40
2022-09-12T18:04:41.596Z,6.05
2022-09-12T18:07:10.611Z,4.70
2022-09-12T18:09:41.083Z,4.05
2022-09-12T18:14:41.242Z,3.72
2022-09-12T18:17:11.575Z,3.58
2022-09-12T18:19:40.493Z,3.30
2022-09-12T18:22:09.514Z,3.45
2022-09-12T18:24:37.979Z,4.20
2022-09-12T18:27:06.520Z,3.83
2022-09-12T18:29:34.979Z,5.78
2022-09-12T18:32:03.431Z,3.95
2022-09-12T18:34:32.773Z,5.30
2022-09-12T18:37:02.168Z,4.00
2022-09-12T18:39:30.612Z,5.88
2022-09-12T18:41:58.956Z,6.00
2022-09-12T18:44:28.070Z,4.90
2022-09-12T18:46:56.358Z,4.32
2022-09-12T18:49:24.772Z,7.07
2022-09-12T18:51:53.280Z,4.88
2022-09-12T18:54:21.702Z,5.63
2022-09-12T18:56:50.183Z,7.97
2022-09-12T18:59:19.739Z,6.53
2022-09-12T19:01:48.183Z,6.72
2022-09-12T19:04:16.935Z,7.55
2022-09-12T19:06:48.314Z,5.70
2022-09-12T19:09:20.737Z,6.38
2022-09-12T19:11:50.162Z,7.57
2022-09-12T19:14:26.185Z,6.57
2022-09-12T19:16:54.562Z,6.72
2022-09-12T19:19:23.448Z,6.75
2022-09-12T19:21:55.388Z,11.75
2022-09-12T19:24:23.763Z,7.70
2022-09-12T19:26:52.218Z,6.00
2022-09-12T19:29:20.670Z,8.68
2022-09-12T19:31:49.037Z,7.35
2022-09-12T19:34:17.612Z,7.72
2022-09-12T19:36:47.323Z,6.22
2022-09-12T19:39:19.584Z,5.60
2022-09-12T19:41:48.365Z,6.40
2022-09-12T19:44:19.386Z,5.03
2022-09-12T19:46:50.150Z,5.82
2022-09-12T19:49:19.656Z,5.85
2022-09-12T19:51:47.881Z,7.50
2022-09-12T19:54:16.263Z,6.25
2022-09-12T19:56:44.946Z,6.40
2022-09-12T19:59:13.842Z,6.28
2022-09-12T20:01:42.264Z,7.47
2022-09-12T20:04:10.699Z,6.88
2022-09-12T20:06:39.053Z,7.28
2022-09-12T20:09:07.697Z,6.90
2022-09-12T20:11:36.232Z,5.88
2022-09-12T20:14:04.819Z,8.23
2022-09-12T20:16:33.808Z,6.95
2022-09-12T20:19:08.686Z,6.70
2022-09-12T20:21:37.376Z,7.60
2022-09-12T20:24:12.930Z,9.52
2022-09-12T20:26:42.207Z,9.07
2022-09-12T20:29:10.857Z,10.20
2022-09-12T20:31:41.759Z,8.40
2022-09-12T20:34:15.751Z,8.25
2022-09-12T20:36:44.726Z,8.38
2022-09-12T20:39:16.091Z,10.23
2022-09-12T20:41:44.883Z,8.05
2022-09-12T20:44:14.654Z,8.20
2022-09-12T20:46:43.503Z,10.00
2022-09-12T20:49:12.050Z,8.60
2022-09-12T20:51:40.413Z,9.43
2022-09-12T20:54:09.764Z,10.43
2022-09-12T20:56:38.122Z,10.43
2022-09-12T20:59:06.873Z,9.30
2022-09-12T21:01:35.428Z,9.93
2022-09-12T21:04:04.144Z,9.73
2022-09-12T21:06:33.748Z,9.68
2022-09-12T21:09:03.350Z,8.98
2022-09-12T21:11:32.668Z,11.20
2022-09-12T21:14:01.163Z,8.50
2022-09-12T21:16:29.809Z,9.20
2022-09-12T21:18:59.641Z,9.77
2022-09-12T21:21:28.043Z,10.70
2022-09-12T21:24:02.860Z,9.88
2022-09-12T21:26:31.903Z,8.90
2022-09-12T21:29:00.374Z,9.32
2022-09-12T21:31:28.854Z,9.25
2022-09-12T21:33:57.414Z,11.77
2022-09-12T21:36:25.814Z,11.32
2022-09-12T21:38:58.378Z,9.60
2022-09-12T21:41:28.804Z,10.57
2022-09-12T21:43:57.197Z,11.40
2022-09-12T21:46:25.739Z,13.52
2022-09-12T21:48:54.134Z,10.70
2022-09-12T21:51:22.495Z,11.52
2022-09-12T21:53:50.772Z,11.18
2022-09-12T21:56:19.183Z,11.38
2022-09-12T21:58:47.561Z,13.25
2022-09-12T22:01:15.894Z,12.00
2022-09-12T22:03:44.770Z,11.55
2022-09-12T22:06:14.350Z,11.35
2022-09-12T22:08:43.050Z,12.80
2022-09-12T22:11:11.382Z,11.00
2022-09-12T22:13:43.364Z,11.95
2022-09-12T22:16:12.363Z,12.13
2022-09-12T22:18:41.540Z,13.25
2022-09-12T22:21:14.022Z,15.38
2022-09-12T22:24:02.092Z,12.93
2022-09-12T22:26:34.064Z,13.75
2022-09-12T22:29:02.719Z,14.45
2022-09-12T22:31:32.336Z,14.88
2022-09-12T22:34:01.710Z,12.67
2022-09-12T22:36:31.591Z,14.75
2022-09-12T22:39:00.873Z,12.85
2022-09-12T22:41:29.462Z,13.02
2022-09-12T22:43:58.421Z,13.68
2022-09-12T22:46:27.877Z,16.80
2022-09-12T22:48:56.269Z,17.27
2022-09-12T22:51:24.832Z,18.15
2022-09-12T22:53:53.812Z,17.70
2022-09-12T22:56:22.800Z,15.63
2022-09-12T22:58:52.660Z,16.52
2022-09-12T23:01:21.459Z,16.73
2022-09-12T23:03:50.916Z,17.83
2022-09-12T23:06:19.446Z,16.30
2022-09-12T23:08:47.906Z,17.05
2022-09-12T23:11:19.768Z,14.32
2022-09-12T23:13:49.957Z,14.80
2022-09-12T23:16:24.007Z,16.48
2022-09-12T23:18:52.564Z,14.27
2022-09-12T23:21:21.901Z,13.55
2022-09-12T23:23:50.851Z,14.55
2022-09-12T23:26:24.493Z,17.10
2022-09-12T23:28:55.176Z,16.83
2022-09-12T23:31:27.405Z,15.55
2022-09-12T23:33:57.653Z,18.58
2022-09-12T23:36:27.278Z,18.08
2022-09-12T23:38:56.327Z,19.23
2022-09-12T23:41:25.464Z,19.42
2022-09-12T23:43:54.311Z,21.55
2022-09-12T23:46:22.693Z,19.45
2022-09-12T23:48:53.338Z,23.75
2022-09-12T23:51:22.203Z,21.17
2022-09-12T23:53:50.619Z,19.25
2022-09-12T23:56:18.949Z,23.05
2022-09-12T23:58:47.359Z,24.23
